createdAt,value
2024-05-09T00:00:51.437Z,21.30
2024-05-09T00:03:21.989Z,21.77
2024-05-09T00:05:52.000Z,22.35
2024-05-09T00:08:25.461Z,22.02
2024-05-09T00:10:56.020Z,22.02
2024-05-09T00:13:25.948Z,23.40
2024-05-09T00:15:55.917Z,23.55
2024-05-09T00:18:25.953Z,22.08
2024-05-09T00:20:55.991Z,22.85
2024-05-09T00:23:29.211Z,22.42
2024-05-09T00:25:59.429Z,21.13
2024-05-09T00:28:29.415Z,21.23
2024-05-09T00:30:59.401Z,21.60
2024-05-09T00:33:29.656Z,20.75
2024-05-09T00:35:59.801Z,19.75
2024-05-09T00:38:32.507Z,20.77
2024-05-09T00:41:02.660Z,22.73
2024-05-09T00:43:32.791Z,21.33
2024-05-09T00:46:03.102Z,21.15
2024-05-09T00:48:33.406Z,21.40
2024-05-09T00:51:04.474Z,22.45
2024-05-09T00:53:37.494Z,20.73
2024-05-09T00:56:08.393Z,18.48
2024-05-09T00:58:38.563Z,19.13
2024-05-09T01:03:45.270Z,20.67
2024-05-09T01:06:16.664Z,18.90
2024-05-09T01:08:50.172Z,19.55
2024-05-09T01:11:21.217Z,20.00
2024-05-09T01:13:51.567Z,20.63
2024-05-09T01:16:22.194Z,19.95
2024-05-09T01:18:52.929Z,20.98
2024-05-09T01:21:22.960Z,20.73
2024-05-09T01:23:55.617Z,19.60
2024-05-09T01:26:25.662Z,20.75
2024-05-09T01:28:55.689Z,20.08
2024-05-09T01:31:25.674Z,20.70
2024-05-09T01:33:55.816Z,19.67
2024-05-09T01:36:25.820Z,20.73
2024-05-09T01:38:58.448Z,20.13
2024-05-09T01:41:28.468Z,21.40
2024-05-09T01:43:58.604Z,20.30
2024-05-09T01:46:28.554Z,20.48
2024-05-09T01:48:59.036Z,20.65
2024-05-09T01:51:29.063Z,20.90
2024-05-09T01:54:01.668Z,19.85
2024-05-09T01:56:31.594Z,19.20
2024-05-09T01:59:02.001Z,19.15
2024-05-09T02:01:55.338Z,20.92
2024-05-09T02:04:22.121Z,19.40
2024-05-09T02:06:52.159Z,20.08
2024-05-09T02:09:25.731Z,19.67
2024-05-09T02:11:56.772Z,18.60
2024-05-09T02:14:26.929Z,18.38
2024-05-09T02:16:57.018Z,18.85
2024-05-09T02:19:27.126Z,19.77
2024-05-09T02:21:57.124Z,19.80
2024-05-09T02:24:29.682Z,19.60
2024-05-09T02:26:59.582Z,19.17
2024-05-09T02:29:29.896Z,20.48
2024-05-09T02:32:00.028Z,19.95
2024-05-09T02:34:30.053Z,18.20
2024-05-09T02:37:00.012Z,17.95
2024-05-09T02:39:29.911Z,17.38
2024-05-09T02:41:59.823Z,18.27
2024-05-09T02:44:27.225Z,19.02
2024-05-09T02:46:57.223Z,18.23
2024-05-09T02:49:24.726Z,18.15
2024-05-09T02:51:54.769Z,18.15
2024-05-09T02:54:22.071Z,17.95
2024-05-09T02:56:54.642Z,18.10
2024-05-09T02:59:22.251Z,19.15
2024-05-09T03:01:52.467Z,17.95
2024-05-09T03:04:19.950Z,17.20
2024-05-09T03:06:50.168Z,17.02
2024-05-09T03:09:17.826Z,17.20
2024-05-09T03:11:47.918Z,17.98
2024-05-09T03:14:19.615Z,16.90
2024-05-09T03:16:49.730Z,17.35
2024-05-09T03:19:17.323Z,16.02
2024-05-09T03:21:47.411Z,17.33
2024-05-09T03:24:14.727Z,16.48
2024-05-09T03:26:44.862Z,16.17
2024-05-09T03:29:12.308Z,15.82
2024-05-09T03:31:45.322Z,16.25
2024-05-09T03:34:12.850Z,16.80
2024-05-09T03:36:45.309Z,17.50
2024-05-09T03:39:15.353Z,16.67
2024-05-09T03:41:45.338Z,17.30
2024-05-09T03:44:15.349Z,17.20
2024-05-09T03:46:45.408Z,17.20
2024-05-09T03:49:15.515Z,16.35
2024-05-09T03:51:42.930Z,16.90
2024-05-09T03:54:13.037Z,16.85
2024-05-09T03:56:40.516Z,16.02
2024-05-09T03:59:10.586Z,17.60
2024-05-09T04:01:38.127Z,15.30
2024-05-09T04:04:12.429Z,16.45
2024-05-09T04:06:39.821Z,17.13
2024-05-09T04:09:09.734Z,17.67
2024-05-09T04:11:37.130Z,16.05
2024-05-09T04:14:07.231Z,16.50
2024-05-09T04:16:34.603Z,17.08
2024-05-09T04:19:04.663Z,16.52
2024-05-09T04:21:37.511Z,18.00
2024-05-09T04:24:05.461Z,20.20
2024-05-09T04:26:35.538Z,20.95
2024-05-09T04:29:02.916Z,20.08
2024-05-09T04:31:32.852Z,19.58
2024-05-09T04:34:00.351Z,22.50
2024-05-09T04:36:30.402Z,20.13
2024-05-09T04:39:00.316Z,18.95
2024-05-09T04:41:30.294Z,19.17
2024-05-09T04:43:57.660Z,17.35
2024-05-09T04:46:27.634Z,18.80
2024-05-09T04:48:55.076Z,17.10
2024-05-09T04:51:25.242Z,17.25
2024-05-09T04:53:52.672Z,17.95
2024-05-09T04:56:25.447Z,16.73
2024-05-09T04:58:52.869Z,15.85
2024-05-09T05:01:22.885Z,16.50
2024-05-09T05:03:50.488Z,16.80
2024-05-09T05:06:20.594Z,17.15
2024-05-09T05:08:47.875Z,17.55
2024-05-09T05:11:17.967Z,16.67
2024-05-09T05:13:48.062Z,16.70
2024-05-09T05:16:18.044Z,17.60
2024-05-09T05:18:45.558Z,17.48
2024-05-09T05:21:15.834Z,18.85
2024-05-09T05:23:43.448Z,17.02
2024-05-09T05:26:13.553Z,18.85
2024-05-09T05:28:40.904Z,16.90
2024-05-09T05:31:13.613Z,17.48
2024-05-09T05:33:41.313Z,16.33
2024-05-09T05:36:12.175Z,16.23
2024-05-09T05:38:39.627Z,16.55
2024-05-09T05:41:09.793Z,17.85
2024-05-09T05:43:37.089Z,17.00
2024-05-09T05:46:07.255Z,17.08
2024-05-09T05:48:37.375Z,18.08
2024-05-09T05:51:07.913Z,16.13
2024-05-09T05:53:35.373Z,16.80
2024-05-09T05:56:05.500Z,16.85
2024-05-09T05:58:33.102Z,16.58
2024-05-09T06:01:03.112Z,15.23
2024-05-09T06:03:30.660Z,15.82
2024-05-09T06:06:05.785Z,16.08
2024-05-09T06:08:33.659Z,14.40
2024-05-09T06:11:03.764Z,14.48
2024-05-09T06:13:31.256Z,13.43
2024-05-09T06:16:02.445Z,12.63
2024-05-09T06:18:30.147Z,12.85
2024-05-09T06:21:02.973Z,12.32
2024-05-09T06:23:30.357Z,12.00
2024-05-09T06:26:00.448Z,12.32
2024-05-09T06:28:27.868Z,11.98
2024-05-09T06:30:57.838Z,12.48
2024-05-09T06:33:25.427Z,11.02
2024-05-09T06:35:59.418Z,10.52
2024-05-09T06:38:29.544Z,10.65
2024-05-09T06:40:59.679Z,9.73
2024-05-09T06:43:26.985Z,10.73
2024-05-09T06:45:56.941Z,11.02
2024-05-09T06:48:24.553Z,10.07
2024-05-09T06:50:54.711Z,10.55
2024-05-09T06:53:23.155Z,10.57
2024-05-09T06:55:55.821Z,9.68
2024-05-09T06:58:23.156Z,8.40
2024-05-09T07:00:53.167Z,9.68
2024-05-09T07:03:20.691Z,9.95
2024-05-09T07:05:50.777Z,8.18
2024-05-09T07:08:18.673Z,9.63
2024-05-09T07:10:49.251Z,9.68
2024-05-09T07:13:19.352Z,9.45
2024-05-09T07:15:49.368Z,9.10
2024-05-09T07:18:18.595Z,9.82
2024-05-09T07:20:50.614Z,8.27
2024-05-09T07:23:19.160Z,8.65
2024-05-09T07:25:49.542Z,8.20
2024-05-09T07:28:20.600Z,7.95
2024-05-09T07:30:50.634Z,7.75
2024-05-09T07:33:18.783Z,7.82
2024-05-09T07:35:49.548Z,7.53
2024-05-09T07:38:17.110Z,7.05
2024-05-09T07:40:47.267Z,7.65
2024-05-09T07:43:15.866Z,7.40
2024-05-09T07:45:53.628Z,7.88
2024-05-09T07:52:46.035Z,6.82
2024-05-09T07:53:49.211Z,6.43
2024-05-09T07:56:23.853Z,7.00
2024-05-09T07:58:52.710Z,7.32
2024-05-09T08:01:27.242Z,7.03
2024-05-09T08:03:55.216Z,7.03
2024-05-09T08:06:25.838Z,6.68
2024-05-09T08:08:53.259Z,6.28
2024-05-09T08:11:23.964Z,6.05
2024-05-09T08:13:51.414Z,6.60
2024-05-09T08:16:21.634Z,5.97
2024-05-09T08:18:51.906Z,6.10
2024-05-09T08:21:22.001Z,5.72
2024-05-09T08:23:49.432Z,6.60
2024-05-09T08:26:19.355Z,5.50
2024-05-09T08:28:46.767Z,5.50
2024-05-09T08:31:16.858Z,4.72
2024-05-09T08:33:45.339Z,4.93
2024-05-09T08:36:18.217Z,5.88
2024-05-09T08:38:45.714Z,5.25
2024-05-09T08:41:18.033Z,4.60
2024-05-09T08:43:46.157Z,5.05
2024-05-09T08:46:18.606Z,5.00
2024-05-09T08:48:50.785Z,5.57
2024-05-09T08:51:20.973Z,5.10
2024-05-09T08:53:50.899Z,4.82
2024-05-09T08:56:20.583Z,4.43
2024-05-09T08:58:52.822Z,4.80
2024-05-09T09:01:21.170Z,4.82
2024-05-09T09:03:53.597Z,4.80
2024-05-09T09:06:25.631Z,4.07
2024-05-09T09:08:56.133Z,4.50
2024-05-09T09:11:23.614Z,3.90
2024-05-09T09:13:53.549Z,3.63
2024-05-09T09:16:31.213Z,3.90
2024-05-09T09:19:01.346Z,3.45
2024-05-09T09:21:31.660Z,3.88
2024-05-09T09:24:01.696Z,3.90
2024-05-09T09:26:31.653Z,4.30
2024-05-09T09:29:03.601Z,4.55
2024-05-09T09:31:31.248Z,4.25
2024-05-09T09:34:01.409Z,3.78
2024-05-09T09:36:31.972Z,4.03
2024-05-09T09:39:02.145Z,4.80
2024-05-09T09:41:31.646Z,4.18
2024-05-09T09:44:02.975Z,4.15
2024-05-09T09:46:31.122Z,4.00
2024-05-09T09:49:01.471Z,3.70
2024-05-09T09:51:33.233Z,3.70
2024-05-09T09:54:06.419Z,3.90
2024-05-09T09:56:35.458Z,3.85
2024-05-09T09:59:08.200Z,3.95
2024-05-09T10:01:36.908Z,3.92
2024-05-09T10:04:08.136Z,3.63
2024-05-09T10:06:42.370Z,3.78
2024-05-09T10:09:16.387Z,3.47
2024-05-09T10:11:49.160Z,4.07
2024-05-09T10:14:25.084Z,3.83
2024-05-09T10:16:52.474Z,3.78
2024-05-09T10:19:27.478Z,3.50
2024-05-09T10:22:04.643Z,3.88
2024-05-09T10:24:50.615Z,3.75
2024-05-09T10:27:26.506Z,4.60
2024-05-09T10:29:58.942Z,3.63
2024-05-09T10:32:28.508Z,3.40
2024-05-09T10:35:11.686Z,3.90
2024-05-09T10:37:41.892Z,3.53
2024-05-09T10:40:26.098Z,3.10
2024-05-09T10:43:03.493Z,3.20
2024-05-09T10:45:37.801Z,3.58
2024-05-09T10:48:06.239Z,3.47
2024-05-09T10:50:36.417Z,3.53
2024-05-09T10:53:06.476Z,3.42
2024-05-09T10:55:36.434Z,3.10
2024-05-09T10:58:04.029Z,3.15
2024-05-09T11:00:36.526Z,3.67
2024-05-09T11:03:04.639Z,3.58
2024-05-09T11:05:35.855Z,3.53
2024-05-09T11:08:06.622Z,3.30
2024-05-09T11:10:36.806Z,4.35
2024-05-09T11:13:04.486Z,3.13
2024-05-09T11:15:41.494Z,3.22
2024-05-09T11:18:23.610Z,3.10
2024-05-09T11:20:55.086Z,3.05
2024-05-09T11:23:26.710Z,3.78
2024-05-09T11:25:57.902Z,3.33
2024-05-09T11:28:28.800Z,3.40
2024-05-09T11:31:09.093Z,3.28
2024-05-09T11:33:37.688Z,3.55
2024-05-09T11:36:08.776Z,3.22
2024-05-09T11:38:38.835Z,3.40
2024-05-09T11:41:09.352Z,3.08
2024-05-09T11:43:36.742Z,2.97
2024-05-09T11:46:06.909Z,3.45
2024-05-09T11:48:34.573Z,2.70
2024-05-09T11:51:04.718Z,2.90
2024-05-09T11:53:32.045Z,3.65
2024-05-09T11:56:04.740Z,2.97
2024-05-09T11:58:34.628Z,3.35
2024-05-09T12:01:04.968Z,2.95
2024-05-09T12:03:32.574Z,3.05
2024-05-09T12:06:02.834Z,3.08
2024-05-09T12:08:30.340Z,3.08
2024-05-09T12:11:00.712Z,3.35
2024-05-09T12:13:30.996Z,2.70
2024-05-09T12:16:01.674Z,3.08
2024-05-09T12:18:29.217Z,3.40
2024-05-09T12:20:59.362Z,3.05
2024-05-09T12:23:26.717Z,3.28
2024-05-09T12:25:57.113Z,3.15
2024-05-09T12:28:26.397Z,3.38
2024-05-09T12:30:59.054Z,3.13
2024-05-09T12:33:26.484Z,2.90
2024-05-09T12:35:56.539Z,2.67
2024-05-09T12:38:23.875Z,3.10
2024-05-09T12:40:54.322Z,3.10
2024-05-09T12:43:21.842Z,2.90
2024-05-09T12:45:51.920Z,3.22
2024-05-09T12:48:22.181Z,3.35
2024-05-09T12:50:52.305Z,2.95
2024-05-09T12:53:19.628Z,2.70
2024-05-09T12:55:56.648Z,3.05
2024-05-09T12:58:27.824Z,2.80
2024-05-09T13:00:57.854Z,2.63
2024-05-09T13:03:28.041Z,2.85
2024-05-09T13:05:58.354Z,2.88
2024-05-09T13:08:25.779Z,2.75
2024-05-09T13:10:55.838Z,3.25
2024-05-09T13:13:23.170Z,2.33
2024-05-09T13:15:53.246Z,2.97
2024-05-09T13:18:20.599Z,2.80
2024-05-09T13:20:53.172Z,2.83
2024-05-09T13:23:20.465Z,3.08
2024-05-09T13:25:50.456Z,2.63
2024-05-09T13:28:18.241Z,2.92
2024-05-09T13:30:48.317Z,2.53
2024-05-09T13:33:15.916Z,2.50
2024-05-09T13:35:49.680Z,3.00
2024-05-09T13:38:21.927Z,2.50
2024-05-09T13:40:52.172Z,2.40
2024-05-09T13:43:22.032Z,2.38
2024-05-09T13:45:52.379Z,2.65
2024-05-09T13:48:20.115Z,2.70
2024-05-09T13:50:50.462Z,2.60
2024-05-09T13:53:18.157Z,2.55
2024-05-09T13:55:51.715Z,2.30
2024-05-09T13:58:19.550Z,2.22
2024-05-09T14:00:49.939Z,2.20
2024-05-09T14:03:19.756Z,2.70
2024-05-09T14:05:52.240Z,2.45
2024-05-09T14:08:22.259Z,2.67
2024-05-09T14:10:56.248Z,2.70
2024-05-09T14:13:23.944Z,2.83
2024-05-09T14:15:54.405Z,2.78
2024-05-09T14:18:22.242Z,2.90
2024-05-09T14:20:52.471Z,2.67
2024-05-09T14:23:20.127Z,2.78
2024-05-09T14:25:53.032Z,2.47
2024-05-09T14:28:24.721Z,2.35
2024-05-09T14:30:56.624Z,2.60
2024-05-09T14:33:26.849Z,2.30
2024-05-09T14:35:57.408Z,2.67
2024-05-09T14:38:25.255Z,2.63
2024-05-09T14:40:55.925Z,2.80
2024-05-09T14:43:28.990Z,2.85
2024-05-09T14:45:57.030Z,2.40
2024-05-09T14:48:27.430Z,2.83
2024-05-09T14:50:55.097Z,2.80
2024-05-09T14:53:27.118Z,2.88
2024-05-09T14:55:55.293Z,2.55
2024-05-09T14:58:25.817Z,2.63
2024-05-09T15:00:56.250Z,3.30
2024-05-09T15:03:27.291Z,2.90
2024-05-09T15:05:55.170Z,2.83
2024-05-09T15:08:25.437Z,2.78
2024-05-09T15:10:53.339Z,2.80
2024-05-09T15:13:24.157Z,2.63
2024-05-09T15:15:52.124Z,2.60
2024-05-09T15:18:25.064Z,2.55
2024-05-09T15:20:52.722Z,2.75
2024-05-09T15:23:23.271Z,2.60
2024-05-09T15:25:51.045Z,3.40
2024-05-09T15:28:21.553Z,2.88
2024-05-09T15:30:49.331Z,2.85
2024-05-09T15:33:19.647Z,3.05
2024-05-09T15:35:51.653Z,3.05
2024-05-09T15:38:22.209Z,3.00
2024-05-09T15:40:49.991Z,3.22
2024-05-09T15:43:20.331Z,3.22
2024-05-09T15:45:47.945Z,2.88
2024-05-09T15:48:18.378Z,2.80
2024-05-09T15:50:46.200Z,3.15
2024-05-09T15:53:19.210Z,2.60
2024-05-09T15:55:49.449Z,2.63
2024-05-09T15:58:17.296Z,2.63
2024-05-09T16:00:49.745Z,2.97
2024-05-09T16:03:21.321Z,2.65
2024-05-09T16:05:52.345Z,3.13
2024-05-09T16:08:22.726Z,2.45
2024-05-09T16:10:53.095Z,2.90
2024-05-09T16:13:20.943Z,2.80
2024-05-09T16:15:51.618Z,2.88
2024-05-09T16:18:19.785Z,3.15
2024-05-09T16:20:50.842Z,2.83
2024-05-09T16:23:18.548Z,2.75
2024-05-09T16:25:51.918Z,2.90
2024-05-09T16:28:20.530Z,2.92
2024-05-09T16:30:51.960Z,3.20
2024-05-09T16:33:23.888Z,2.95
2024-05-09T16:35:51.719Z,3.38
2024-05-09T16:38:22.226Z,3.25
2024-05-09T16:40:52.752Z,3.13
2024-05-09T16:43:24.212Z,2.80
2024-05-09T16:45:52.021Z,2.75
2024-05-09T16:48:22.691Z,3.03
2024-05-09T16:50:50.333Z,3.30
2024-05-09T16:53:20.952Z,3.78
2024-05-09T16:55:48.675Z,3.25
2024-05-09T16:58:22.062Z,3.55
2024-05-09T17:00:49.816Z,3.40
2024-05-09T17:03:21.250Z,3.33
2024-05-09T17:05:50.483Z,3.17
2024-05-09T17:10:49.514Z,4.00
2024-05-09T17:15:53.487Z,3.10
2024-05-09T17:18:23.960Z,2.90
2024-05-09T17:20:52.498Z,3.45
2024-05-09T17:23:22.796Z,3.23
2024-05-09T17:25:50.536Z,3.08
2024-05-09T17:28:21.238Z,3.75
2024-05-09T17:30:51.698Z,3.30
2024-05-09T17:33:22.064Z,3.42
2024-05-09T17:35:51.387Z,3.28
2024-05-09T17:38:23.019Z,3.63
2024-05-09T17:40:52.032Z,3.53
2024-05-09T17:43:22.647Z,3.88
2024-05-09T17:45:55.655Z,3.80
2024-05-09T17:48:23.424Z,6.20
2024-05-09T17:50:54.167Z,6.53
2024-05-09T17:53:21.922Z,7.78
2024-05-09T17:55:53.921Z,10.95
2024-05-09T17:58:21.586Z,13.10
2024-05-09T18:00:54.483Z,16.35
2024-05-09T18:03:23.374Z,13.38
2024-05-09T18:05:53.700Z,13.90
2024-05-09T18:08:21.100Z,11.00
2024-05-09T18:10:52.714Z,9.93
2024-05-09T18:13:21.484Z,8.10
2024-05-09T18:15:54.193Z,7.30
2024-05-09T18:18:21.651Z,8.20
2024-05-09T18:20:52.673Z,9.15
2024-05-09T18:23:20.119Z,17.00
2024-05-09T18:25:54.648Z,18.83
2024-05-09T18:28:22.555Z,11.05
2024-05-09T18:30:55.382Z,9.10
2024-05-09T18:33:24.635Z,7.82
2024-05-09T18:38:25.623Z,7.22
2024-05-09T18:40:55.881Z,6.80
2024-05-09T18:43:28.907Z,7.25
2024-05-09T18:46:08.763Z,6.90
2024-05-09T18:48:36.315Z,6.80
2024-05-09T18:51:06.855Z,6.28
2024-05-09T18:53:34.203Z,5.43
2024-05-09T18:56:04.254Z,5.50
2024-05-09T18:58:31.553Z,5.30
2024-05-09T19:01:01.941Z,5.28
2024-05-09T19:03:32.530Z,5.18
2024-05-09T19:06:02.824Z,5.47
2024-05-09T19:08:30.208Z,4.78
2024-05-09T19:11:01.839Z,5.30
2024-05-09T19:13:29.382Z,5.35
2024-05-09T19:15:59.585Z,5.32
2024-05-09T19:18:27.310Z,5.97
2024-05-09T19:21:03.113Z,5.47
2024-05-09T19:23:35.182Z,5.72
2024-05-09T19:26:08.548Z,6.22
2024-05-09T19:28:35.852Z,5.82
2024-05-09T19:31:05.774Z,5.80
2024-05-09T19:33:33.267Z,5.78
2024-05-09T19:36:06.008Z,6.00
2024-05-09T19:38:34.419Z,5.43
2024-05-09T19:41:04.351Z,5.50
2024-05-09T19:43:33.853Z,5.65
2024-05-09T19:46:05.772Z,6.07
2024-05-09T19:48:33.244Z,5.72
2024-05-09T19:51:06.052Z,6.20
2024-05-09T19:53:33.428Z,6.20
2024-05-09T19:56:03.365Z,7.32
2024-05-09T19:58:30.747Z,7.45
2024-05-09T20:01:00.983Z,8.63
2024-05-09T20:03:28.457Z,7.88
2024-05-09T20:05:59.070Z,8.20
2024-05-09T20:08:29.086Z,8.15
2024-05-09T20:10:59.212Z,7.05
2024-05-09T20:13:26.863Z,7.43
2024-05-09T20:15:56.928Z,6.82
2024-05-09T20:18:24.316Z,6.13
2024-05-09T20:20:54.426Z,6.05
2024-05-09T20:23:21.910Z,5.72
2024-05-09T20:25:54.511Z,5.32
2024-05-09T20:28:21.972Z,4.45
2024-05-09T20:30:52.133Z,5.03
2024-05-09T20:33:19.524Z,4.65
2024-05-09T20:35:49.514Z,4.82
2024-05-09T20:38:16.807Z,5.13
2024-05-09T20:40:46.761Z,4.45
2024-05-09T20:43:16.897Z,5.03
2024-05-09T20:45:47.003Z,4.78
2024-05-09T20:48:14.423Z,4.63
2024-05-09T20:50:44.724Z,5.38
2024-05-09T20:53:14.010Z,5.80
2024-05-09T20:55:45.634Z,6.07
2024-05-09T20:58:15.886Z,6.18
2024-05-09T21:00:46.754Z,6.75
2024-05-09T21:03:16.310Z,8.10
2024-05-09T21:05:48.256Z,7.97
2024-05-09T21:08:16.850Z,8.00
2024-05-09T21:10:46.888Z,7.50
2024-05-09T21:13:16.948Z,7.43
2024-05-09T21:15:47.090Z,7.75
2024-05-09T21:18:14.502Z,5.82
2024-05-09T21:20:44.591Z,14.55
2024-05-09T21:23:11.887Z,29.20
2024-05-09T21:25:41.874Z,26.65
2024-05-09T21:28:09.394Z,22.80
2024-05-09T21:30:43.239Z,23.25
2024-05-09T21:33:12.954Z,25.17
2024-05-09T21:35:44.921Z,16.70
2024-05-09T21:38:14.215Z,20.30
2024-05-09T21:40:45.327Z,19.13
2024-05-09T21:43:12.914Z,13.68
2024-05-09T21:45:45.753Z,11.73
2024-05-09T21:48:13.423Z,9.85
2024-05-09T21:50:43.592Z,10.25
2024-05-09T21:53:11.327Z,7.82
2024-05-09T21:55:41.511Z,7.10
2024-05-09T21:58:09.008Z,6.22
2024-05-09T22:00:40.741Z,6.13
2024-05-09T22:03:12.268Z,6.00
2024-05-09T22:05:44.776Z,5.90
2024-05-09T22:08:12.702Z,6.10
2024-05-09T22:10:43.411Z,5.93
2024-05-09T22:13:11.144Z,6.18
2024-05-09T22:15:42.574Z,5.43
2024-05-09T22:18:12.870Z,5.60
2024-05-09T22:20:45.417Z,5.28
2024-05-09T22:23:14.240Z,5.25
2024-05-09T22:25:44.324Z,5.13
2024-05-09T22:28:14.546Z,6.28
2024-05-09T22:30:47.267Z,5.60
2024-05-09T22:33:18.024Z,5.20
2024-05-09T22:35:48.214Z,5.35
2024-05-09T22:38:15.635Z,5.10
2024-05-09T22:40:48.870Z,5.28
2024-05-09T22:43:19.407Z,5.85
2024-05-09T22:45:50.301Z,5.65
2024-05-09T22:48:20.862Z,5.55
2024-05-09T22:50:50.922Z,5.20
2024-05-09T22:53:18.638Z,5.43
2024-05-09T22:55:48.569Z,5.88
2024-05-09T22:58:16.154Z,5.47
2024-05-09T23:00:46.356Z,5.55
2024-05-09T23:03:15.937Z,5.05
2024-05-09T23:08:15.660Z,5.32
2024-05-09T23:10:46.340Z,5.82
2024-05-09T23:13:13.839Z,5.85
2024-05-09T23:15:44.058Z,5.85
2024-05-09T23:18:11.514Z,5.60
2024-05-09T23:20:41.622Z,6.00
2024-05-09T23:23:12.322Z,6.13
2024-05-09T23:25:43.701Z,6.00
2024-05-09T23:28:11.214Z,5.75
2024-05-09T23:30:42.177Z,5.90
2024-05-09T23:33:11.003Z,5.93
2024-05-09T23:35:41.348Z,6.68
2024-05-09T23:38:11.361Z,5.53
2024-05-09T23:40:42.444Z,6.22
2024-05-09T23:43:11.845Z,6.03
2024-05-09T23:45:42.866Z,5.97
2024-05-09T23:48:11.143Z,6.07
2024-05-09T23:50:41.638Z,6.53
2024-05-09T23:53:11.954Z,6.32
2024-05-09T23:55:42.067Z,5.20
2024-05-09T23:58:09.666Z,6.63
